Time;durP1;ratioP1;P1;durP2;ratioP2;P2;SDS_P1;SDS_P2;PMS_P1;PMS_P2;Temp;Humidity;BMP_temperature;BMP_pressure;BME280_temperature;BME280_humidity;BME280_pressure;Samples;Min_cycle;Max_cycle;Signal;HPM_P1;HPM_P2
2024/01/11 00:01:33;;;;;;;37.08;18.17;;;;;;;;;;5082867;28;20489;-73
2024/01/11 00:03:59;;;;;;;38.65;18.45;;;;;;;;;;5081180;28;20120;-73
2024/01/11 00:06:25;;;;;;;37.17;17.80;;;;;;;;;;5084324;28;20044;-73
2024/01/11 00:08:51;;;;;;;40.60;19.33;;;;;;;;;;5085803;28;20050;-73
2024/01/11 00:11:17;;;;;;;35.47;17.65;;;;;;;;;;5086506;28;20525;-74
2024/01/11 00:13:43;;;;;;;39.75;19.13;;;;;;;;;;5085420;28;20040;-74
2024/01/11 00:16:09;;;;;;;37.35;17.83;;;;;;;;;;5084737;28;20466;-73
2024/01/11 00:18:35;;;;;;;40.17;19.00;;;;;;;;;;5085017;28;20055;-73
2024/01/11 00:21:01;;;;;;;35.53;18.55;;;;;;;;;;5084997;28;20079;-73
2024/01/11 00:23:27;;;;;;;39.85;19.20;;;;;;;;;;5084842;28;20160;-73
2024/01/11 00:25:53;;;;;;;37.63;18.88;;;;;;;;;;5084848;28;20563;-73
2024/01/11 00:28:19;;;;;;;36.08;18.90;;;;;;;;;;5084967;28;20048;-73
2024/01/11 00:30:45;;;;;;;40.85;18.75;;;;;;;;;;5085321;28;20051;-74
2024/01/11 00:33:11;;;;;;;36.92;18.92;;;;;;;;;;5086388;28;20763;-74
2024/01/11 00:35:37;;;;;;;35.42;17.23;;;;;;;;;;5084630;28;20040;-73
2024/01/11 00:38:03;;;;;;;37.42;18.02;;;;;;;;;;5084631;28;20040;-73
2024/01/11 00:40:29;;;;;;;35.90;17.65;;;;;;;;;;5084775;28;20040;-73
2024/01/11 00:42:55;;;;;;;39.08;19.40;;;;;;;;;;5082918;28;20240;-73
2024/01/11 00:45:21;;;;;;;41.20;18.83;;;;;;;;;;5086588;28;20062;-73
2024/01/11 00:47:47;;;;;;;38.78;17.90;;;;;;;;;;5084820;28;20619;-73
2024/01/11 00:50:13;;;;;;;37.88;18.88;;;;;;;;;;5085297;28;20047;-74
2024/01/11 00:52:39;;;;;;;38.30;18.52;;;;;;;;;;5084605;28;20083;-73
2024/01/11 00:55:05;;;;;;;38.15;17.45;;;;;;;;;;5086010;28;20124;-73
2024/01/11 00:57:31;;;;;;;42.55;19.48;;;;;;;;;;5085078;28;20052;-73
2024/01/11 00:59:57;;;;;;;38.50;19.05;;;;;;;;;;5086756;28;20089;-73
2024/01/11 01:02:23;;;;;;;38.28;18.38;;;;;;;;;;5084525;28;20036;-73
2024/01/11 01:04:49;;;;;;;42.83;18.85;;;;;;;;;;5086107;28;20036;-73
2024/01/11 01:07:15;;;;;;;36.65;18.15;;;;;;;;;;5085753;28;20059;-73
2024/01/11 01:09:41;;;;;;;36.88;18.08;;;;;;;;;;5084334;28;20086;-73
2024/01/11 01:12:07;;;;;;;39.08;18.58;;;;;;;;;;5084557;28;20067;-73
2024/01/11 01:14:33;;;;;;;39.03;19.05;;;;;;;;;;5084401;28;20066;-73
2024/01/11 01:16:59;;;;;;;36.70;18.02;;;;;;;;;;5083489;28;20056;-73
2024/01/11 01:19:25;;;;;;;39.47;19.13;;;;;;;;;;5083980;28;20046;-74
2024/01/11 01:21:51;;;;;;;41.92;19.73;;;;;;;;;;5083995;28;20047;-73
2024/01/11 01:24:17;;;;;;;39.90;19.00;;;;;;;;;;5084039;28;20052;-73
2024/01/11 01:26:43;;;;;;;39.10;19.85;;;;;;;;;;5083974;28;20043;-73
2024/01/11 01:29:09;;;;;;;40.28;19.35;;;;;;;;;;5083660;28;20040;-73
2024/01/11 01:31:37;;;;;;;35.25;17.90;;;;;;;;;;5083899;28;20043;-73
2024/01/11 01:34:04;;;;;;;36.35;17.75;;;;;;;;;;5063379;28;20044;-73
2024/01/11 01:36:30;;;;;;;41.92;19.70;;;;;;;;;;5080521;28;20051;-73
2024/01/11 01:38:56;;;;;;;36.05;17.95;;;;;;;;;;5084605;28;20075;-73
2024/01/11 01:41:22;;;;;;;39.97;19.40;;;;;;;;;;5083113;28;20143;-73
2024/01/11 01:43:48;;;;;;;39.42;18.92;;;;;;;;;;5084923;28;20686;-74
2024/01/11 01:46:19;;;;;;;35.65;16.92;;;;;;;;;;5083175;28;20036;-73
2024/01/11 01:48:45;;;;;;;39.40;18.60;;;;;;;;;;5085039;28;20040;-73
2024/01/11 01:51:11;;;;;;;37.75;18.33;;;;;;;;;;5082679;28;20130;-73
2024/01/11 01:53:37;;;;;;;36.20;18.27;;;;;;;;;;5083186;28;20048;-73
2024/01/11 01:56:04;;;;;;;39.15;18.77;;;;;;;;;;5082705;28;20082;-73
2024/01/11 01:58:31;;;;;;;38.03;18.50;;;;;;;;;;5084089;28;20572;-73
2024/01/11 02:00:57;;;;;;;34.25;16.48;;;;;;;;;;5082514;28;20054;-73
2024/01/11 02:03:24;;;;;;;48.15;19.63;;;;;;;;;;5082295;28;20048;-73
2024/01/11 02:05:51;;;;;;;39.78;19.00;;;;;;;;;;5082530;28;20058;-73
2024/01/11 02:08:19;;;;;;;38.25;18.67;;;;;;;;;;5081961;28;20459;-73
2024/01/11 02:10:45;;;;;;;43.45;18.63;;;;;;;;;;5082061;28;20047;-73
2024/01/11 02:13:13;;;;;;;39.30;19.27;;;;;;;;;;5083456;28;20118;-73
2024/01/11 02:15:39;;;;;;;40.72;19.83;;;;;;;;;;5086712;28;20055;-73
2024/01/11 02:18:05;;;;;;;38.08;18.83;;;;;;;;;;5089732;28;20055;-73
2024/01/11 02:20:31;;;;;;;35.95;17.45;;;;;;;;;;5090921;28;20500;-73
2024/01/11 02:23:01;;;;;;;38.10;18.90;;;;;;;;;;5088300;28;20044;-74
2024/01/11 02:25:27;;;;;;;36.92;17.92;;;;;;;;;;5085624;28;20288;-73
2024/01/11 02:27:53;;;;;;;36.83;17.63;;;;;;;;;;5085838;28;20093;-73
2024/01/11 02:30:19;;;;;;;38.88;17.90;;;;;;;;;;5083097;28;20044;-73
2024/01/11 02:32:49;;;;;;;38.78;18.13;;;;;;;;;;5080347;28;20155;-73
2024/01/11 02:35:15;;;;;;;39.75;18.90;;;;;;;;;;5084792;28;20039;-73
2024/01/11 02:37:42;;;;;;;39.58;18.65;;;;;;;;;;5086491;28;20497;-73
2024/01/11 02:40:08;;;;;;;45.90;20.67;;;;;;;;;;5089469;28;20632;-73
2024/01/11 02:42:35;;;;;;;38.42;18.30;;;;;;;;;;5085800;28;20035;-73
2024/01/11 02:45:01;;;;;;;40.72;20.02;;;;;;;;;;5083278;28;20039;-73
2024/01/11 02:47:27;;;;;;;40.30;19.70;;;;;;;;;;5085993;28;20048;-73
2024/01/11 02:49:53;;;;;;;39.22;19.23;;;;;;;;;;5082801;28;20050;-75
2024/01/11 02:52:19;;;;;;;38.22;19.17;;;;;;;;;;5088334;27;20484;-73
2024/01/11 02:54:45;;;;;;;43.35;18.83;;;;;;;;;;5083810;28;20047;-73
2024/01/11 02:57:11;;;;;;;43.50;19.33;;;;;;;;;;5087805;28;20071;-73
2024/01/11 02:59:37;;;;;;;45.30;19.83;;;;;;;;;;5087594;28;20039;-73
2024/01/11 03:02:04;;;;;;;50.53;22.48;;;;;;;;;;5089748;28;20504;-73
2024/01/11 03:04:30;;;;;;;50.15;22.50;;;;;;;;;;5084283;28;20032;-73
2024/01/11 03:06:56;;;;;;;53.65;22.27;;;;;;;;;;5084461;28;20044;-73
2024/01/11 03:09:22;;;;;;;46.22;20.42;;;;;;;;;;5085429;28;20086;-73
2024/01/11 03:11:48;;;;;;;46.70;21.70;;;;;;;;;;5083048;28;20052;-73
2024/01/11 03:14:14;;;;;;;45.03;21.55;;;;;;;;;;5066578;28;20166;-74
2024/01/11 03:16:40;;;;;;;48.22;20.80;;;;;;;;;;5084830;28;20044;-73
2024/01/11 03:19:06;;;;;;;41.25;20.67;;;;;;;;;;5083491;28;20172;-73
2024/01/11 03:21:32;;;;;;;41.05;18.23;;;;;;;;;;5083444;28;20470;-73
2024/01/11 03:23:59;;;;;;;45.42;20.08;;;;;;;;;;5084088;28;20082;-73
2024/01/11 03:26:25;;;;;;;46.05;20.90;;;;;;;;;;5092296;28;20055;-73
2024/01/11 03:28:51;;;;;;;39.53;19.75;;;;;;;;;;5066450;28;20044;-73
2024/01/11 03:31:17;;;;;;;43.78;19.38;;;;;;;;;;5088758;28;20519;-73
2024/01/11 03:33:43;;;;;;;40.50;20.20;;;;;;;;;;5083171;28;20040;-74
2024/01/11 03:36:10;;;;;;;41.03;19.38;;;;;;;;;;5082419;28;20699;-73
2024/01/11 03:38:36;;;;;;;44.95;20.80;;;;;;;;;;5064243;28;20148;-73
2024/01/11 03:41:02;;;;;;;40.45;19.33;;;;;;;;;;5066479;28;20040;-73
2024/01/11 03:43:28;;;;;;;50.55;21.88;;;;;;;;;;5082918;28;20040;-74
2024/01/11 03:45:55;;;;;;;48.90;21.73;;;;;;;;;;5083002;28;20067;-74
2024/01/11 03:48:22;;;;;;;39.15;17.40;;;;;;;;;;5085148;28;20079;-73
2024/01/11 03:50:48;;;;;;;39.85;18.38;;;;;;;;;;5081088;28;20048;-73
2024/01/11 03:53:14;;;;;;;32.72;18.13;;;;;;;;;;5083594;28;20052;-73
2024/01/11 03:55:40;;;;;;;38.42;17.20;;;;;;;;;;5084599;28;20052;-74
2024/01/11 03:58:06;;;;;;;38.08;17.98;;;;;;;;;;5082180;28;20055;-73
2024/01/11 04:00:33;;;;;;;38.80;18.90;;;;;;;;;;5066235;28;20040;-73
2024/01/11 04:02:59;;;;;;;35.72;17.23;;;;;;;;;;5082088;28;20048;-73
2024/01/11 04:05:25;;;;;;;36.90;18.40;;;;;;;;;;5082160;28;20036;-73
2024/01/11 04:07:51;;;;;;;43.30;20.23;;;;;;;;;;5085815;28;20054;-73
2024/01/11 04:10:18;;;;;;;45.30;19.40;;;;;;;;;;5086935;28;20043;-73
2024/01/11 04:12:44;;;;;;;44.83;20.65;;;;;;;;;;5083285;28;20048;-74
2024/01/11 04:15:13;;;;;;;43.40;19.23;;;;;;;;;;5082810;28;20213;-74
2024/01/11 04:17:39;;;;;;;42.80;21.50;;;;;;;;;;5081066;28;20051;-73
2024/01/11 04:20:06;;;;;;;42.67;21.00;;;;;;;;;;5088359;28;20079;-73
2024/01/11 04:22:32;;;;;;;42.80;20.02;;;;;;;;;;5092505;28;20043;-74
2024/01/11 04:24:58;;;;;;;40.63;18.88;;;;;;;;;;5064870;28;20387;-73
2024/01/11 04:27:24;;;;;;;46.75;21.42;;;;;;;;;;5085245;28;20062;-73
2024/01/11 04:29:50;;;;;;;46.58;21.40;;;;;;;;;;5089645;28;20052;-73
2024/01/11 04:32:16;;;;;;;41.47;20.45;;;;;;;;;;5083725;28;20075;-74
2024/01/11 04:34:42;;;;;;;40.13;19.73;;;;;;;;;;5083254;28;20074;-73
2024/01/11 04:37:08;;;;;;;43.72;21.30;;;;;;;;;;5082013;28;20048;-73
2024/01/11 04:39:34;;;;;;;48.97;21.15;;;;;;;;;;5082770;28;20046;-73
2024/01/11 04:42:03;;;;;;;48.03;20.23;;;;;;;;;;5086708;28;20385;-73
2024/01/11 04:44:29;;;;;;;49.05;21.95;;;;;;;;;;5086158;28;20143;-73
2024/01/11 04:46:55;;;;;;;40.08;19.00;;;;;;;;;;5086850;28;20048;-74
2024/01/11 04:49:21;;;;;;;44.45;20.38;;;;;;;;;;5083390;28;20084;-73
2024/01/11 04:51:47;;;;;;;46.08;22.02;;;;;;;;;;5081636;28;20131;-73
2024/01/11 04:54:13;;;;;;;44.45;20.90;;;;;;;;;;5084720;28;20442;-73
2024/01/11 04:56:39;;;;;;;41.80;19.77;;;;;;;;;;5092139;28;20044;-73
2024/01/11 04:59:05;;;;;;;42.67;20.05;;;;;;;;;;5087433;28;20523;-73
2024/01/11 05:01:31;;;;;;;42.55;18.08;;;;;;;;;;5085676;28;20074;-74
2024/01/11 05:03:57;;;;;;;41.05;18.73;;;;;;;;;;5086925;28;20047;-73
2024/01/11 05:06:24;;;;;;;40.30;18.35;;;;;;;;;;5085255;28;20043;-73
2024/01/11 05:08:52;;;;;;;40.85;18.55;;;;;;;;;;5086788;28;20049;-73
2024/01/11 05:11:18;;;;;;;41.17;18.60;;;;;;;;;;5085876;28;20052;-73
2024/01/11 05:13:47;;;;;;;40.33;18.33;;;;;;;;;;5086693;28;20039;-73
2024/01/11 05:16:24;;;;;;;44.45;19.45;;;;;;;;;;5088531;28;20051;-73
2024/01/11 05:18:51;;;;;;;39.30;18.75;;;;;;;;;;5087026;28;20065;-73
2024/01/11 05:21:17;;;;;;;37.17;17.70;;;;;;;;;;5084136;28;20054;-73
2024/01/11 05:23:43;;;;;;;44.08;18.30;;;;;;;;;;5087406;28;20036;-74
2024/01/11 05:26:09;;;;;;;36.13;17.92;;;;;;;;;;5084869;28;20044;-73
2024/01/11 05:28:36;;;;;;;40.22;18.77;;;;;;;;;;5088914;28;20930;-75
2024/01/11 05:31:02;;;;;;;43.13;18.83;;;;;;;;;;5088499;28;20092;-73
2024/01/11 05:33:28;;;;;;;44.25;19.75;;;;;;;;;;5087240;28;20436;-73
2024/01/11 05:35:54;;;;;;;43.33;19.67;;;;;;;;;;5087690;28;20047;-73
2024/01/11 05:38:20;;;;;;;47.92;20.63;;;;;;;;;;5086306;28;20052;-73
2024/01/11 05:40:46;;;;;;;45.83;21.13;;;;;;;;;;5084124;28;20089;-74
2024/01/11 05:43:12;;;;;;;49.20;21.25;;;;;;;;;;5087299;28;20031;-73
2024/01/11 05:45:38;;;;;;;50.65;21.92;;;;;;;;;;5087653;28;20043;-73
2024/01/11 05:48:05;;;;;;;48.63;22.38;;;;;;;;;;5083602;28;20132;-73
2024/01/11 05:50:32;;;;;;;48.58;22.75;;;;;;;;;;5085121;28;20054;-74
2024/01/11 05:52:58;;;;;;;48.63;22.40;;;;;;;;;;5083107;28;20060;-74
2024/01/11 05:55:24;;;;;;;50.03;23.25;;;;;;;;;;5083189;28;20108;-73
2024/01/11 05:57:50;;;;;;;51.30;23.88;;;;;;;;;;5081929;28;20048;-73
2024/01/11 06:00:16;;;;;;;48.95;23.05;;;;;;;;;;5083127;28;20044;-73
2024/01/11 06:02:42;;;;;;;49.38;23.50;;;;;;;;;;5085813;28;20125;-73
2024/01/11 06:05:09;;;;;;;54.55;23.55;;;;;;;;;;5085555;28;20039;-74
2024/01/11 06:07:35;;;;;;;52.53;23.42;;;;;;;;;;5084816;28;20099;-73
2024/01/11 06:10:02;;;;;;;53.03;23.67;;;;;;;;;;5084290;28;20052;-74
2024/01/11 06:12:29;;;;;;;47.42;21.83;;;;;;;;;;5086597;28;20119;-75
2024/01/11 06:14:55;;;;;;;52.03;24.15;;;;;;;;;;5086723;28;20774;-73
2024/01/11 06:17:21;;;;;;;52.67;23.38;;;;;;;;;;5087401;28;20044;-74
2024/01/11 06:19:47;;;;;;;60.22;25.33;;;;;;;;;;5084124;28;20044;-73
2024/01/11 06:22:13;;;;;;;55.92;23.25;;;;;;;;;;5068230;28;20072;-73
2024/01/11 06:24:39;;;;;;;58.05;25.60;;;;;;;;;;5083831;28;20044;-73
2024/01/11 06:27:05;;;;;;;58.05;25.92;;;;;;;;;;5083113;28;20066;-73
2024/01/11 06:29:31;;;;;;;52.65;23.70;;;;;;;;;;5082660;28;20086;-73
2024/01/11 06:31:57;;;;;;;56.10;24.63;;;;;;;;;;5084088;28;20785;-73
2024/01/11 06:34:23;;;;;;;50.22;24.10;;;;;;;;;;5087806;28;20603;-73
2024/01/11 06:36:49;;;;;;;52.20;24.77;;;;;;;;;;5085949;28;20498;-73
2024/01/11 06:39:15;;;;;;;53.45;24.83;;;;;;;;;;5082055;28;20039;-73
2024/01/11 06:41:41;;;;;;;54.28;24.80;;;;;;;;;;5083105;28;20040;-73
2024/01/11 06:44:07;;;;;;;55.08;25.25;;;;;;;;;;5085357;28;20052;-73
2024/01/11 06:46:33;;;;;;;56.33;25.83;;;;;;;;;;5084596;28;20039;-73
2024/01/11 06:48:59;;;;;;;57.17;25.67;;;;;;;;;;5083096;28;20044;-73
2024/01/11 06:51:25;;;;;;;58.83;26.60;;;;;;;;;;5083935;28;20074;-73
2024/01/11 06:53:52;;;;;;;53.75;24.30;;;;;;;;;;5066812;28;20782;-73
2024/01/11 06:56:18;;;;;;;57.20;24.70;;;;;;;;;;5066535;28;20058;-73
2024/01/11 06:58:45;;;;;;;54.85;24.20;;;;;;;;;;5086185;28;20043;-74
2024/01/11 07:01:11;;;;;;;52.83;25.13;;;;;;;;;;5087769;28;20054;-73
2024/01/11 07:03:38;;;;;;;54.10;22.85;;;;;;;;;;5087003;28;20039;-73
2024/01/11 07:06:04;;;;;;;55.25;24.45;;;;;;;;;;5066447;28;20044;-73
2024/01/11 07:08:30;;;;;;;52.70;24.52;;;;;;;;;;5083092;28;20099;-74
2024/01/11 07:10:56;;;;;;;54.58;23.48;;;;;;;;;;5085590;28;20048;-73
2024/01/11 07:13:23;;;;;;;56.10;24.90;;;;;;;;;;5085894;28;20048;-74
2024/01/11 07:15:51;;;;;;;54.25;24.90;;;;;;;;;;5083746;28;20197;-75
2024/01/11 07:18:17;;;;;;;53.40;23.60;;;;;;;;;;5082842;28;20051;-72
2024/01/11 07:20:43;;;;;;;56.20;24.00;;;;;;;;;;5083125;28;20039;-73
2024/01/11 07:23:09;;;;;;;50.08;24.45;;;;;;;;;;5082264;28;20051;-73
2024/01/11 07:25:35;;;;;;;53.85;24.98;;;;;;;;;;5082559;28;20088;-73
2024/01/11 07:28:02;;;;;;;52.67;23.98;;;;;;;;;;5084314;28;20039;-73
2024/01/11 07:30:28;;;;;;;54.35;24.13;;;;;;;;;;5082232;28;20055;-73
2024/01/11 07:32:54;;;;;;;55.00;24.70;;;;;;;;;;5082090;28;20044;-73
2024/01/11 07:35:20;;;;;;;55.30;25.45;;;;;;;;;;5083220;28;20048;-74
2024/01/11 07:37:46;;;;;;;53.58;25.27;;;;;;;;;;5081938;28;20047;-73
2024/01/11 07:40:13;;;;;;;51.38;23.98;;;;;;;;;;5083720;28;20069;-69
2024/01/11 07:42:39;;;;;;;53.50;23.77;;;;;;;;;;5083181;28;20040;-74
2024/01/11 07:45:06;;;;;;;51.67;22.77;;;;;;;;;;5077141;28;20046;-72
2024/01/11 07:47:32;;;;;;;54.88;24.00;;;;;;;;;;5081622;28;20083;-72
2024/01/11 07:49:58;;;;;;;51.03;24.10;;;;;;;;;;5081390;28;20560;-71
2024/01/11 07:52:24;;;;;;;54.60;23.98;;;;;;;;;;5081410;28;20050;-72
2024/01/11 07:54:50;;;;;;;53.55;25.50;;;;;;;;;;5080737;28;20061;-72
2024/01/11 07:57:16;;;;;;;48.60;22.73;;;;;;;;;;5081262;28;20072;-71
2024/01/11 07:59:42;;;;;;;55.40;24.52;;;;;;;;;;5080776;28;20043;-71
2024/01/11 08:02:08;;;;;;;51.13;23.48;;;;;;;;;;5080687;28;20031;-71
2024/01/11 08:04:34;;;;;;;55.35;24.42;;;;;;;;;;5082058;28;20071;-72
2024/01/11 08:07:01;;;;;;;54.42;24.67;;;;;;;;;;5080889;28;20058;-71
2024/01/11 08:09:28;;;;;;;53.20;22.90;;;;;;;;;;5080990;28;20123;-71
2024/01/11 08:11:54;;;;;;;52.15;23.13;;;;;;;;;;5080759;28;20040;-71
2024/01/11 08:14:20;;;;;;;54.42;24.27;;;;;;;;;;5086743;28;20828;-71
2024/01/11 08:16:46;;;;;;;56.47;24.98;;;;;;;;;;5085146;28;20126;-71
2024/01/11 08:19:16;;;;;;;51.47;23.80;;;;;;;;;;5084204;28;20439;-71
2024/01/11 08:21:42;;;;;;;48.78;22.63;;;;;;;;;;5089785;28;21623;-71
2024/01/11 08:24:08;;;;;;;50.47;23.13;;;;;;;;;;5081667;28;20811;-71
2024/01/11 08:26:34;;;;;;;54.08;24.50;;;;;;;;;;5083296;28;20075;-71
2024/01/11 08:29:00;;;;;;;55.03;26.20;;;;;;;;;;5088685;28;20160;-71
2024/01/11 08:31:26;;;;;;;49.65;25.38;;;;;;;;;;5091207;28;20457;-71
2024/01/11 08:33:53;;;;;;;50.25;24.15;;;;;;;;;;5084092;28;20048;-71
2024/01/11 08:36:20;;;;;;;52.83;23.83;;;;;;;;;;5084853;28;20082;-71
2024/01/11 08:38:46;;;;;;;51.85;24.58;;;;;;;;;;5085702;28;20052;-71
2024/01/11 08:41:12;;;;;;;58.20;25.08;;;;;;;;;;5085094;28;20844;-73
2024/01/11 08:43:39;;;;;;;52.53;22.88;;;;;;;;;;5084801;28;20146;-73
2024/01/11 08:46:05;;;;;;;56.03;24.50;;;;;;;;;;5084914;28;20062;-72
2024/01/11 08:48:31;;;;;;;51.75;24.45;;;;;;;;;;5085313;28;20041;-72
2024/01/11 08:50:57;;;;;;;54.53;25.60;;;;;;;;;;5084574;28;20060;-72
2024/01/11 08:53:23;;;;;;;53.35;25.65;;;;;;;;;;5084666;28;20050;-71
2024/01/11 08:55:49;;;;;;;52.33;24.77;;;;;;;;;;5084174;28;20047;-74
2024/01/11 08:58:15;;;;;;;48.25;23.67;;;;;;;;;;5086417;28;20040;-70
2024/01/11 09:00:41;;;;;;;56.50;26.42;;;;;;;;;;5083775;28;20122;-70
2024/01/11 09:03:07;;;;;;;56.22;24.30;;;;;;;;;;5086984;28;20877;-70
2024/01/11 09:05:33;;;;;;;48.83;23.73;;;;;;;;;;5084223;28;20039;-72
2024/01/11 09:07:59;;;;;;;53.47;24.63;;;;;;;;;;5089368;28;20416;-72
2024/01/11 09:10:25;;;;;;;48.88;23.85;;;;;;;;;;5084793;28;20078;-71
2024/01/11 09:12:51;;;;;;;54.03;25.20;;;;;;;;;;5087758;28;20118;-70
2024/01/11 09:15:17;;;;;;;51.58;25.02;;;;;;;;;;5083191;28;20611;-70
2024/01/11 09:17:43;;;;;;;51.80;24.77;;;;;;;;;;5086085;28;20401;-70
2024/01/11 09:20:13;;;;;;;53.63;24.92;;;;;;;;;;5083802;28;20040;-70
2024/01/11 09:22:39;;;;;;;59.17;26.00;;;;;;;;;;5082341;28;20036;-72
2024/01/11 09:25:07;;;;;;;45.38;22.58;;;;;;;;;;5084054;28;20055;-72
2024/01/11 09:27:33;;;;;;;52.67;25.70;;;;;;;;;;5084922;28;20099;-70
2024/01/11 09:29:59;;;;;;;55.88;26.40;;;;;;;;;;5083929;28;20455;-70
2024/01/11 09:32:25;;;;;;;53.75;25.35;;;;;;;;;;5083334;28;20044;-70
2024/01/11 09:34:51;;;;;;;58.78;25.58;;;;;;;;;;5081158;28;20050;-70
2024/01/11 09:37:18;;;;;;;51.47;25.17;;;;;;;;;;5083987;28;20056;-69
2024/01/11 09:39:44;;;;;;;56.05;26.05;;;;;;;;;;5087829;28;20039;-69
2024/01/11 09:42:10;;;;;;;58.92;24.98;;;;;;;;;;5084532;28;20044;-70
2024/01/11 09:44:39;;;;;;;58.22;26.42;;;;;;;;;;5088425;28;20458;-70
2024/01/11 09:47:06;;;;;;;47.15;24.15;;;;;;;;;;5066009;28;20051;-70
2024/01/11 09:49:34;;;;;;;56.17;25.33;;;;;;;;;;5087878;28;20048;-72
2024/01/11 09:52:01;;;;;;;54.70;25.10;;;;;;;;;;5082784;28;20044;-72
2024/01/11 09:54:27;;;;;;;53.28;25.08;;;;;;;;;;5082064;28;20051;-73
2024/01/11 09:56:55;;;;;;;54.88;24.80;;;;;;;;;;5084729;28;20564;-75
2024/01/11 09:59:24;;;;;;;53.45;25.23;;;;;;;;;;5085118;28;20954;-74
2024/01/11 10:01:51;;;;;;;52.83;24.38;;;;;;;;;;5085241;28;20034;-72
2024/01/11 10:04:17;;;;;;;50.17;24.17;;;;;;;;;;5083907;28;20071;-71
2024/01/11 10:06:43;;;;;;;53.10;23.55;;;;;;;;;;5084215;28;20777;-70
2024/01/11 10:09:09;;;;;;;49.95;22.38;;;;;;;;;;5085752;28;20051;-70
2024/01/11 10:11:35;;;;;;;46.80;22.98;;;;;;;;;;5084454;28;20054;-70
2024/01/11 10:14:02;;;;;;;46.88;23.42;;;;;;;;;;5096822;28;20044;-70
2024/01/11 10:16:29;;;;;;;48.75;23.63;;;;;;;;;;5081322;28;20062;-70
2024/01/11 10:18:56;;;;;;;48.92;22.67;;;;;;;;;;5082157;28;20413;-70
2024/01/11 10:21:22;;;;;;;50.95;23.17;;;;;;;;;;5082474;28;20039;-70
2024/01/11 10:23:49;;;;;;;48.97;24.08;;;;;;;;;;5082597;28;20043;-70
2024/01/11 10:26:21;;;;;;;53.30;24.92;;;;;;;;;;5083536;28;20050;-70
2024/01/11 10:28:47;;;;;;;55.22;26.27;;;;;;;;;;5062897;28;20059;-70
2024/01/11 10:31:17;;;;;;;49.33;23.92;;;;;;;;;;5084982;28;20039;-69
2024/01/11 10:33:43;;;;;;;52.60;25.42;;;;;;;;;;5084508;28;20822;-70
2024/01/11 10:36:11;;;;;;;48.38;22.67;;;;;;;;;;5082056;28;20047;-70
2024/01/11 10:38:39;;;;;;;46.92;22.65;;;;;;;;;;5090495;28;20040;-69
2024/01/11 10:41:06;;;;;;;46.60;22.60;;;-0.10;99.90;;;;;;5085570;28;20039;-69
2024/01/11 10:43:34;;;;;;;47.38;23.42;;;;;;;;;;5093165;28;20039;-70
2024/01/11 10:46:04;;;;;;;48.72;24.48;;;;;;;;;;5082362;28;20108;-69
2024/01/11 10:48:31;;;;;;;50.58;23.38;;;;;;;;;;5083016;28;20101;-69
2024/01/11 10:51:00;;;;;;;51.75;24.08;;;;;;;;;;5082256;28;20346;-69
2024/01/11 10:53:37;;;;;;;48.55;23.10;;;;;;;;;;5084624;28;20063;-69
2024/01/11 10:56:06;;;;;;;51.55;22.17;;;0.50;99.90;;;;;;5091624;28;20240;-69
2024/01/11 10:58:33;;;;;;;50.28;22.70;;;;;;;;;;5083005;28;20044;-69
2024/01/11 11:00:59;;;;;;;43.78;22.45;;;;;;;;;;5081880;28;20043;-69
2024/01/11 11:03:26;;;;;;;48.65;24.27;;;;;;;;;;5083383;28;20493;-69
2024/01/11 11:05:58;;;;;;;47.50;22.88;;;;;;;;;;5083617;28;20123;-69
2024/01/11 11:08:26;;;;;;;48.90;23.13;;;;;;;;;;5082054;28;20127;-69
2024/01/11 11:11:00;;;;;;;52.05;23.92;;;0.40;99.90;;;;;;5087992;28;20369;-69
2024/01/11 11:13:26;;;;;;;45.40;22.67;;;;;;;;;;5083347;28;20090;-71
2024/01/11 11:15:53;;;;;;;50.13;24.05;;;;;;;;;;5086464;28;20055;-72
2024/01/11 11:18:20;;;;;;;48.22;21.77;;;;;;;;;;5083284;28;20044;-71
2024/01/11 11:20:48;;;;;;;44.60;23.58;;;;;;;;;;5081588;28;20521;-71
2024/01/11 11:23:17;;;;;;;46.97;23.50;;;;;;;;;;5081530;28;20052;-72
2024/01/11 11:25:43;;;;;;;48.67;22.25;;;;;;;;;;5082272;28;20040;-71
2024/01/11 11:28:11;;;;;;;41.30;21.15;;;;;;;;;;5082944;28;20051;-71
2024/01/11 11:30:44;;;;;;;46.30;22.15;;;;;;;;;;5081868;28;20047;-71
2024/01/11 11:33:17;;;;;;;48.75;22.60;;;;;;;;;;5081903;28;20926;-71
2024/01/11 11:35:43;;;;;;;44.47;21.63;;;;;;;;;;5082030;28;20512;-69
2024/01/11 11:38:17;;;;;;;48.40;23.13;;;;;;;;;;5082222;28;20074;-70
2024/01/11 11:40:45;;;;;;;45.30;24.10;;;;;;;;;;5082171;28;20087;-73
2024/01/11 11:43:11;;;;;;;43.75;22.02;;;;;;;;;;5082007;28;20454;-72
2024/01/11 11:45:38;;;;;;;48.88;24.27;;;;;;;;;;5080022;28;20492;-72
2024/01/11 11:48:23;;;;;;;45.85;23.25;;;;;;;;;;5066969;28;20071;-73
2024/01/11 11:51:01;;;;;;;45.40;22.90;;;;;;;;;;5081490;28;20090;-72
2024/01/11 11:53:30;;;;;;;43.00;22.27;;;;;;;;;;5087390;28;20066;-73
2024/01/11 11:55:56;;;;;;;48.55;21.80;;;;;;;;;;5081254;28;20056;-73
2024/01/11 11:58:22;;;;;;;47.38;23.52;;;;;;;;;;5081542;28;20051;-73
2024/01/11 12:00:49;;;;;;;46.70;22.90;;;;;;;;;;5082766;28;20485;-73
2024/01/11 12:03:16;;;;;;;48.15;23.23;;;;;;;;;;5100092;28;20039;-73
2024/01/11 12:05:43;;;;;;;45.47;22.20;;;;;;;;;;5085624;28;20116;-73
2024/01/11 12:08:09;;;;;;;46.65;22.30;;;;;;;;;;5088174;28;20090;-73
2024/01/11 12:10:35;;;;;;;45.22;22.17;;;;;;;;;;5088174;28;20131;-73
2024/01/11 12:13:01;;;;;;;41.97;20.63;;;;;;;;;;5085879;28;20508;-73
2024/01/11 12:15:28;;;;;;;43.75;21.77;;;;;;;;;;5084657;28;20399;-73
2024/01/11 12:18:00;;;;;;;44.35;21.70;;;;;;;;;;5086276;28;20173;-73
2024/01/11 12:20:26;;;;;;;44.10;22.02;;;;;;;;;;5085162;28;20047;-72
2024/01/11 12:22:52;;;;;;;44.13;21.75;;;;;;;;;;5086878;28;20036;-72
2024/01/11 12:25:18;;;;;;;44.10;21.55;;;;;;;;;;5085022;28;20071;-72
2024/01/11 12:27:45;;;;;;;43.55;21.40;;;;;;;;;;5085417;28;20449;-72
2024/01/11 12:30:14;;;;;;;45.47;21.95;;;;;;;;;;5084422;28;20522;-72
2024/01/11 12:32:40;;;;;;;40.63;20.10;;;;;;;;;;5085854;28;20489;-72
2024/01/11 12:35:06;;;;;;;46.00;21.73;;;;;;;;;;5085991;28;20047;-72
2024/01/11 12:37:32;;;;;;;46.28;21.50;;;;;;;;;;5084888;28;20051;-72
2024/01/11 12:39:58;;;;;;;43.00;21.25;;;;;;;;;;5072815;28;20043;-72
2024/01/11 12:42:25;;;;;;;46.22;22.90;;;;;;;;;;5091174;28;20044;-73
2024/01/11 12:44:51;;;;;;;42.88;21.05;;;;;;;;;;5084298;28;20040;-73
2024/01/11 12:47:20;;;;;;;46.92;22.90;;;;;;;;;;5084254;28;20857;-71
2024/01/11 12:49:46;;;;;;;49.28;23.17;;;;;;;;;;5084663;28;20075;-71
2024/01/11 12:52:19;;;;;;;50.28;24.35;;;;;;;;;;5086095;28;20067;-71
2024/01/11 12:54:45;;;;;;;50.55;24.02;;;;;;;;;;5084142;28;20098;-71
2024/01/11 12:57:12;;;;;;;46.65;23.92;;;;;;;;;;5086298;28;20134;-71
2024/01/11 12:59:39;;;;;;;53.80;25.45;;;;;;;;;;5084811;28;20149;-71
2024/01/11 13:02:06;;;;;;;51.33;24.83;;;1.40;99.90;;;;;;5081358;28;20059;-71
2024/01/11 13:04:32;;;;;;;47.63;23.80;;;;;;;;;;5085767;28;20047;-71
2024/01/11 13:07:00;;;;;;;48.70;23.25;;;;;;;;;;5086593;28;20040;-71
2024/01/11 13:09:26;;;;;;;49.75;24.02;;;;;;;;;;5085461;28;20083;-71
2024/01/11 13:11:52;;;;;;;50.28;23.73;;;;;;;;;;5084744;28;20054;-71
2024/01/11 13:14:19;;;;;;;46.35;22.30;;;;;;;;;;5088897;28;20401;-71
2024/01/11 13:16:46;;;;;;;49.40;23.67;;;;;;;;;;5086081;28;20048;-71
2024/01/11 13:19:12;;;;;;;51.50;22.25;;;;;;;;;;5090412;28;20040;-71
2024/01/11 13:21:38;;;;;;;55.28;25.60;;;;;;;;;;5088530;28;20072;-71
2024/01/11 13:24:05;;;;;;;57.05;26.88;;;;;;;;;;5084621;28;20116;-71
2024/01/11 13:26:31;;;;;;;57.47;26.52;;;;;;;;;;5086186;28;20051;-71
2024/01/11 13:28:57;;;;;;;56.63;26.00;;;;;;;;;;5085459;28;20051;-71
2024/01/11 13:31:23;;;;;;;56.47;25.58;;;;;;;;;;5088174;28;20490;-71
2024/01/11 13:33:49;;;;;;;57.45;25.67;;;;;;;;;;5090546;28;20753;-71
2024/01/11 13:36:15;;;;;;;49.20;24.30;;;;;;;;;;5082605;28;20040;-71
2024/01/11 13:38:41;;;;;;;49.78;24.45;;;;;;;;;;5081766;28;20858;-71
2024/01/11 13:41:10;;;;;;;52.38;22.77;;;;;;;;;;5083294;28;20154;-71
2024/01/11 13:43:36;;;;;;;47.83;22.90;;;;;;;;;;5089259;28;20097;-71
2024/01/11 13:46:05;;;;;;;46.15;21.65;;;;;;;;;;5086680;28;20040;-71
2024/01/11 13:48:32;;;;;;;44.10;22.70;;;;;;;;;;5088629;28;20052;-71
2024/01/11 13:50:59;;;;;;;44.53;20.30;;;;;;;;;;5082923;28;20058;-71
2024/01/11 13:53:25;;;;;;;41.92;19.75;;;;;;;;;;5087173;28;20052;-71
2024/01/11 13:55:52;;;;;;;43.10;20.63;;;;;;;;;;5084649;28;20066;-71
2024/01/11 13:58:18;;;;;;;42.95;19.95;;;;;;;;;;5069587;28;20093;-71
2024/01/11 14:00:45;;;;;;;39.60;18.38;;;;;;;;;;5083306;28;20047;-71
2024/01/11 14:03:11;;;;;;;41.60;20.00;;;;;;;;;;5083907;28;20846;-71
2024/01/11 14:05:37;;;;;;;38.35;20.13;;;;;;;;;;5082967;28;20069;-71
2024/01/11 14:08:06;;;;;;;41.55;19.98;;;;;;;;;;5083185;28;20086;-71
2024/01/11 14:10:32;;;;;;;39.80;18.75;;;;;;;;;;5084752;28;20104;-71
2024/01/11 14:12:59;;;;;;;36.40;17.77;;;;;;;;;;5083435;28;20051;-71